Time,TemperatureF,DewpointF,PressureIn,WindDirection,WindDirectionDegrees,WindSpeedMPH,WindSpeedGustMPH,Humidity,HourlyPrecipIn,Conditions,Clouds,dailyrainin,SoftwareType,DateUTC
2013-07-21 14:59:00,82.8,69.8,29.91,SSE,161,0.0,2.0,65,0.00,,,0.00,meteohub,2013-07-21 18:59:00,
2013-07-21 15:02:00,82.8,70.7,29.91,SSE,159,0.0,1.0,67,0.00,,,0.00,meteohub,2013-07-21 19:02:00,
2013-07-21 15:05:00,82.9,70.0,29.91,SE,139,0.0,1.0,65,0.00,,,0.00,meteohub,2013-07-21 19:05:00,
2013-07-21 15:08:00,83.1,70.2,29.91,SE,126,0.0,1.0,65,0.00,,,0.00,meteohub,2013-07-21 19:08:00,
2013-07-21 15:14:00,83.1,71.1,29.91,SE,126,0.0,1.0,67,0.00,,,0.00,meteohub,2013-07-21 19:14:00,
2013-07-21 15:20:00,82.9,71.2,29.91,SE,126,0.0,1.0,68,0.00,,,0.00,meteohub,2013-07-21 19:20:00,
2013-07-21 15:26:00,82.6,70.5,29.91,SE,126,0.0,1.0,67,0.00,,,0.00,meteohub,2013-07-21 19:26:00,
2013-07-21 15:32:00,82.0,70.3,29.91,SE,126,0.0,1.0,68,0.00,,,0.00,meteohub,2013-07-21 19:32:00,
2013-07-21 15:37:00,81.7,70.5,29.91,SE,126,0.0,1.0,69,0.00,,,0.00,meteohub,2013-07-21 19:37:00,
2013-07-21 15:42:00,81.1,70.3,29.91,SE,126,0.0,1.0,70,0.00,,,0.00,meteohub,2013-07-21 19:42:00,
2013-07-21 15:47:00,81.0,71.4,29.91,SE,126,0.0,0.0,73,0.00,,,0.00,meteohub,2013-07-21 19:47:00,
2013-07-21 15:52:00,80.2,72.0,29.91,SE,128,0.0,0.0,76,0.00,,,0.00,meteohub,2013-07-21 19:52:00,
2013-07-21 15:57:00,79.5,71.2,29.91,SSE,147,0.0,1.0,76,0.00,,,0.00,meteohub,2013-07-21 19:57:00,
2013-07-21 16:02:00,78.8,71.4,29.91,SSE,147,0.0,1.0,78,0.00,,,0.00,meteohub,2013-07-21 20:02:00,
2013-07-21 16:07:00,78.1,70.7,29.91,SSE,165,1.0,1.0,78,0.00,,,0.00,meteohub,2013-07-21 20:07:00,
2013-07-21 16:12:00,77.4,70.7,29.91,SSE,154,3.0,3.0,80,0.00,,,0.00,meteohub,2013-07-21 20:12:00,
2013-07-21 16:17:00,75.9,68.9,29.92,SE,125,2.0,5.0,79,0.00,,,0.00,meteohub,2013-07-21 20:17:00,
2013-07-21 16:22:00,74.3,68.7,29.92,ESE,102,1.0,13.0,83,0.00,,,0.00,meteohub,2013-07-21 20:22:00,
2013-07-21 16:27:00,73.4,68.5,29.92,South,190,1.0,13.0,85,0.00,,,0.00,meteohub,2013-07-21 20:27:00,
2013-07-21 16:32:00,72.9,68.7,29.91,East,92,1.0,13.0,87,0.00,,,0.00,meteohub,2013-07-21 20:32:00,
2013-07-21 16:37:00,72.3,68.5,29.90,WNW,284,0.0,8.0,88,0.01,,,0.01,meteohub,2013-07-21 20:37:00,
2013-07-21 16:42:00,72.0,67.8,29.91,SE,127,0.0,5.0,87,0.01,,,0.01,meteohub,2013-07-21 20:42:00,
2013-07-21 16:47:00,71.8,68.7,29.91,North,5,0.0,5.0,90,0.01,,,0.01,meteohub,2013-07-21 20:47:00,
2013-07-21 16:52:00,71.8,68.0,29.90,SSE,150,0.0,4.0,88,0.01,,,0.01,meteohub,2013-07-21 20:52:00,
2013-07-21 16:57:00,71.8,68.7,29.91,SSE,150,0.0,2.0,90,0.01,,,0.01,meteohub,2013-07-21 20:57:00,
2013-07-21 17:02:00,72.0,68.9,29.90,SE,136,0.0,2.0,90,0.01,,,0.01,meteohub,2013-07-21 21:02:00,
2013-07-21 17:07:00,72.0,69.3,29.91,NNW,327,0.0,1.0,91,0.01,,,0.01,meteohub,2013-07-21 21:07:00,
2013-07-21 17:12:00,72.0,69.3,29.91,NNW,327,0.0,1.0,91,0.01,,,0.01,meteohub,2013-07-21 21:12:00,
2013-07-21 17:17:00,72.0,69.3,29.91,NNW,327,1.0,1.0,91,0.01,,,0.01,meteohub,2013-07-21 21:17:00,
2013-07-21 17:22:00,72.0,69.3,29.91,NNW,327,0.0,1.0,91,0.01,,,0.01,meteohub,2013-07-21 21:22:00,
2013-07-21 17:27:00,72.1,70.0,29.91,NNW,327,0.0,1.0,93,0.01,,,0.01,meteohub,2013-07-21 21:27:00,
2013-07-21 17:32:00,72.7,70.5,29.90,NNW,331,0.0,1.0,93,0.00,,,0.01,meteohub,2013-07-21 21:32:00,
2013-07-21 17:39:00,73.0,70.3,29.90,NNW,331,0.0,0.0,91,0.00,,,0.01,meteohub,2013-07-21 21:39:00,
2013-07-21 17:45:00,73.4,70.9,29.90,NNW,331,0.0,1.0,92,0.00,,,0.01,meteohub,2013-07-21 21:45:00,
2013-07-21 17:51:00,74.1,70.7,29.90,NNW,336,1.0,2.0,89,0.00,,,0.01,meteohub,2013-07-21 21:51:00,
2013-07-21 17:57:00,74.3,70.5,29.89,NNW,336,0.0,3.0,88,0.00,,,0.01,meteohub,2013-07-21 21:57:00,
2013-07-21 18:02:00,74.5,70.7,29.89,ENE,58,0.0,3.0,88,0.00,,,0.01,meteohub,2013-07-21 22:02:00,
2013-07-21 18:07:00,74.5,70.0,29.88,ESE,103,0.0,3.0,86,0.00,,,0.01,meteohub,2013-07-21 22:07:00,
2013-07-21 18:12:00,74.3,69.4,29.88,ESE,112,0.0,1.0,85,0.00,,,0.01,meteohub,2013-07-21 22:12:00,
2013-07-21 18:17:00,74.3,69.8,29.88,ENE,63,0.0,1.0,86,0.00,,,0.01,meteohub,2013-07-21 22:17:00,
2013-07-21 18:22:00,74.7,70.5,29.88,ENE,63,0.0,1.0,87,0.00,,,0.01,meteohub,2013-07-21 22:22:00,
2013-07-21 18:28:00,74.8,70.3,29.87,ENE,63,0.0,1.0,86,0.00,,,0.01,meteohub,2013-07-21 22:28:00,
2013-07-21 18:34:00,74.8,70.3,29.88,North,350,0.0,0.0,86,0.00,,,0.01,meteohub,2013-07-21 22:34:00,
2013-07-21 18:40:00,75.2,70.3,29.88,North,350,1.0,2.0,85,0.00,,,0.01,meteohub,2013-07-21 22:40:00,
2013-07-21 18:46:00,75.2,69.6,29.88,North,355,0.0,2.0,83,0.00,,,0.01,meteohub,2013-07-21 22:46:00,
2013-07-21 18:52:00,75.2,69.6,29.89,NNE,22,0.0,1.0,83,0.00,,,0.01,meteohub,2013-07-21 22:52:00,
2013-07-21 18:57:00,75.4,69.8,29.89,NNE,22,0.0,1.0,83,0.00,,,0.01,meteohub,2013-07-21 22:57:00,
2013-07-21 19:02:00,75.4,69.8,29.89,ENE,74,0.0,1.0,83,0.00,,,0.01,meteohub,2013-07-21 23:02:00,
2013-07-21 19:07:00,75.6,70.3,29.89,East,83,0.0,1.0,84,0.00,,,0.01,meteohub,2013-07-21 23:07:00,
2013-07-21 19:14:00,75.7,70.2,29.89,SE,129,0.0,1.0,83,0.00,,,0.01,meteohub,2013-07-21 23:14:00,
2013-07-21 19:20:00,75.7,70.2,29.89,SE,131,0.0,1.0,83,0.00,,,0.01,meteohub,2013-07-21 23:20:00,
2013-07-21 19:26:00,75.7,69.1,29.89,SE,131,0.0,0.0,80,0.00,,,0.01,meteohub,2013-07-21 23:26:00,
2013-07-21 19:32:00,75.7,69.4,29.89,SE,142,0.0,0.0,81,0.00,,,0.01,meteohub,2013-07-21 23:32:00,
2013-07-21 19:37:00,75.9,70.0,29.90,SE,140,0.0,0.0,82,0.00,,,0.01,meteohub,2013-07-21 23:37:00,
2013-07-21 19:42:00,75.9,69.3,29.90,SE,140,0.0,0.0,80,0.00,,,0.01,meteohub,2013-07-21 23:42:00,
2013-07-21 19:47:00,75.9,69.3,29.90,SE,144,0.0,0.0,80,0.00,,,0.01,meteohub,2013-07-21 23:47:00,
2013-07-21 19:52:00,75.9,69.3,29.90,SE,144,0.0,0.0,80,0.00,,,0.01,meteohub,2013-07-21 23:52:00,
2013-07-21 19:57:00,75.9,69.6,29.90,SE,144,0.0,0.0,81,0.00,,,0.01,meteohub,2013-07-21 23:57:00,
2013-07-21 20:02:00,75.9,69.6,29.90,SE,144,0.0,0.0,81,0.00,,,0.01,meteohub,2013-07-22 00:02:00,
2013-07-21 20:07:00,75.7,69.1,29.90,SE,144,0.0,0.0,80,0.00,,,0.01,meteohub,2013-07-22 00:07:00,
2013-07-21 20:12:00,75.7,69.4,29.90,SE,144,0.0,0.0,81,0.00,,,0.01,meteohub,2013-07-22 00:12:00,
2013-07-21 20:17:00,75.6,69.6,29.90,SE,144,0.0,0.0,82,0.00,,,0.01,meteohub,2013-07-22 00:17:00,
2013-07-21 20:22:00,75.4,69.4,29.90,SE,144,0.0,0.0,82,0.00,,,0.01,meteohub,2013-07-22 00:22:00,
2013-07-21 20:27:00,75.2,69.6,29.90,SE,144,0.0,0.0,83,0.00,,,0.01,meteohub,2013-07-22 00:27:00,
2013-07-21 20:32:00,74.8,69.6,29.89,SE,144,0.0,0.0,84,0.00,,,0.01,meteohub,2013-07-22 00:32:00,
2013-07-21 20:37:00,74.7,69.8,29.89,SE,144,0.0,0.0,85,0.00,,,0.01,meteohub,2013-07-22 00:37:00,
2013-07-21 20:42:00,74.3,69.1,29.90,SE,144,0.0,0.0,84,0.00,,,0.01,meteohub,2013-07-22 00:42:00,
2013-07-21 20:47:00,73.9,68.7,29.90,SE,144,0.0,0.0,84,0.00,,,0.01,meteohub,2013-07-22 00:47:00,
2013-07-21 20:54:00,73.6,67.8,29.89,SE,144,0.0,0.0,82,0.00,,,0.01,meteohub,2013-07-22 00:54:00,
2013-07-21 21:00:00,73.4,68.0,29.90,SW,231,0.0,0.0,83,0.00,,,0.01,meteohub,2013-07-22 01:00:00,
2013-07-21 21:06:00,73.2,68.2,29.90,WNW,292,0.0,0.0,84,0.00,,,0.01,meteohub,2013-07-22 01:06:00,
2013-07-21 21:12:00,72.9,68.7,29.90,NNW,335,0.0,2.0,87,0.00,,,0.01,meteohub,2013-07-22 01:12:00,
2013-07-21 21:17:00,72.3,69.3,29.90,NNW,336,0.0,2.0,90,0.00,,,0.01,meteohub,2013-07-22 01:17:00,
2013-07-21 21:22:00,72.1,69.4,29.90,NNW,336,0.0,2.0,91,0.00,,,0.01,meteohub,2013-07-22 01:22:00,
2013-07-21 21:27:00,71.8,69.1,29.91,NNW,336,1.0,2.0,91,0.00,,,0.01,meteohub,2013-07-22 01:27:00,
2013-07-21 21:33:00,71.6,69.1,29.91,NNW,336,0.0,2.0,92,0.00,,,0.01,meteohub,2013-07-22 01:33:00,
2013-07-21 21:40:00,71.4,68.7,29.91,East,92,0.0,2.0,91,0.00,,,0.01,meteohub,2013-07-22 01:40:00,
2013-07-21 21:46:00,71.1,68.4,29.90,East,92,0.0,0.0,91,0.00,,,0.01,meteohub,2013-07-22 01:46:00,
2013-07-21 21:52:00,70.9,68.2,29.91,East,92,0.0,0.0,91,0.00,,,0.01,meteohub,2013-07-22 01:52:00,
2013-07-21 21:57:00,70.5,67.8,29.91,NNE,28,0.0,0.0,91,0.00,,,0.01,meteohub,2013-07-22 01:57:00,
2013-07-21 22:02:00,70.5,68.0,29.91,NNW,346,0.0,0.0,92,0.00,,,0.01,meteohub,2013-07-22 02:02:00,
2013-07-21 22:07:00,70.5,68.0,29.91,NNW,340,0.0,0.0,92,0.00,,,0.01,meteohub,2013-07-22 02:07:00,
2013-07-21 22:12:00,70.7,68.2,29.91,NNW,340,0.0,4.0,92,0.00,,,0.01,meteohub,2013-07-22 02:12:00,
2013-07-21 22:17:00,70.7,68.2,29.91,East,94,0.0,4.0,92,0.00,,,0.01,meteohub,2013-07-22 02:17:00,
2013-07-21 22:22:00,70.5,68.0,29.91,NE,46,0.0,4.0,92,0.00,,,0.01,meteohub,2013-07-22 02:22:00,
2013-07-21 22:27:00,70.5,68.0,29.91,NE,37,0.0,1.0,92,0.00,,,0.01,meteohub,2013-07-22 02:27:00,
2013-07-21 22:32:00,70.5,68.0,29.91,ESE,117,0.0,2.0,92,0.00,,,0.01,meteohub,2013-07-22 02:32:00,
2013-07-21 22:37:00,70.3,67.8,29.91,ESE,118,0.0,2.0,92,0.00,,,0.01,meteohub,2013-07-22 02:37:00,
2013-07-21 22:42:00,70.2,67.6,29.91,ESE,118,0.0,2.0,92,0.00,,,0.01,meteohub,2013-07-22 02:42:00,
2013-07-21 22:47:00,70.3,68.2,29.92,ESE,117,0.0,1.0,93,0.00,,,0.01,meteohub,2013-07-22 02:47:00,
2013-07-21 22:52:00,70.3,68.2,29.92,North,350,0.0,2.0,93,0.00,,,0.01,meteohub,2013-07-22 02:52:00,
2013-07-21 22:57:00,70.3,68.2,29.92,North,350,0.0,2.0,93,0.00,,,0.01,meteohub,2013-07-22 02:57:00,
2013-07-21 23:02:00,70.3,68.2,29.92,North,350,0.0,2.0,93,0.00,,,0.01,meteohub,2013-07-22 03:02:00,
2013-07-21 23:07:00,70.2,68.0,29.92,North,351,0.0,0.0,93,0.00,,,0.01,meteohub,2013-07-22 03:07:00,
2013-07-21 23:12:00,70.2,68.0,29.93,North,351,0.0,0.0,93,0.00,,,0.01,meteohub,2013-07-22 03:12:00,
2013-07-21 23:17:00,70.0,67.8,29.93,North,351,0.0,0.0,93,0.00,,,0.01,meteohub,2013-07-22 03:17:00,
2013-07-21 23:22:00,70.0,67.8,29.93,North,351,0.0,1.0,93,0.00,,,0.01,meteohub,2013-07-22 03:22:00,
2013-07-21 23:27:00,70.0,67.8,29.93,North,351,0.0,1.0,93,0.00,,,0.01,meteohub,2013-07-22 03:27:00,
2013-07-21 23:32:00,70.0,67.8,29.94,North,351,0.0,1.0,93,0.00,,,0.01,meteohub,2013-07-22 03:32:00,
2013-07-21 23:37:00,70.0,67.8,29.94,North,355,0.0,1.0,93,0.00,,,0.01,meteohub,2013-07-22 03:37:00,
2013-07-21 23:42:00,69.6,67.5,29.94,North,355,0.0,1.0,93,0.00,,,0.01,meteohub,2013-07-22 03:42:00,
2013-07-21 23:47:00,69.6,67.5,29.94,North,355,0.0,0.0,93,0.00,,,0.01,meteohub,2013-07-22 03:47:00,
2013-07-21 23:52:00,69.4,67.6,29.94,North,355,0.0,0.0,94,0.00,,,0.01,meteohub,2013-07-22 03:52:00,
2013-07-21 23:57:00,69.4,67.6,29.94,North,355,0.0,0.0,94,0.00,,,0.01,meteohub,2013-07-22 03:57:00,